Terminal Aerodrome Forecast
Issued by NWS

Home | Current Version | Previous Version | Text Only | Print | Product List | Glossary On
Versions: 1 2 3 4 5 6 7 8 9 10 11 12 13 14 15 16 17 18
336
FTUS41 KBGM 210520
TAFELM
TAF
KELM 210520Z 2106/2206 20004KT 6SM BR OVC012
      TEMPO 2106/2110 3SM BR
     FM211600 VRB03KT P6SM OVC020
     FM212100 18004KT P6SM OVC015
     FM220000 VRB03KT P6SM OVC010=

USA.gov is the U.S. government's official web portal to all federal, state and local government web resources and services.